sensor_id;sensor_type;location;lat;lon;timestamp;pressure;altitude;pressure_sealevel;temperature;humidity
45275;BME280;31019;43.780;25.948;2023-12-04T00:01:27;101874.03;;;0.40;100.00
45275;BME280;31019;43.780;25.948;2023-12-04T00:03:54;101879.13;;;0.42;100.00
45275;BME280;31019;43.780;25.948;2023-12-04T00:06:23;101875.31;;;0.35;100.00
45275;BME280;31019;43.780;25.948;2023-12-04T00:08:50;101880.69;;;0.44;100.00
45275;BME280;31019;43.780;25.948;2023-12-04T00:11:17;101886.53;;;0.48;100.00
45275;BME280;31019;43.780;25.948;2023-12-04T00:13:44;101895.25;;;0.36;100.00
45275;BME280;31019;43.780;25.948;2023-12-04T00:16:11;101890.59;;;0.52;100.00
45275;BME280;31019;43.780;25.948;2023-12-04T00:18:39;101894.78;;;0.31;100.00
45275;BME280;31019;43.780;25.948;2023-12-04T00:21:06;101887.38;;;0.25;100.00
45275;BME280;31019;43.780;25.948;2023-12-04T00:23:35;101884.31;;;0.07;100.00
45275;BME280;31019;43.780;25.948;2023-12-04T00:26:02;101885.34;;;0.04;100.00
45275;BME280;31019;43.780;25.948;2023-12-04T00:28:29;101900.06;;;0.05;100.00
45275;BME280;31019;43.780;25.948;2023-12-04T00:30:56;101902.53;;;0.19;100.00
45275;BME280;31019;43.780;25.948;2023-12-04T00:33:23;101909.66;;;0.17;100.00
45275;BME280;31019;43.780;25.948;2023-12-04T00:35:51;101918.25;;;0.43;100.00
45275;BME280;31019;43.780;25.948;2023-12-04T00:38:21;101926.19;;;0.42;100.00
45275;BME280;31019;43.780;25.948;2023-12-04T00:40:49;101927.06;;;0.30;100.00
45275;BME280;31019;43.780;25.948;2023-12-04T00:43:16;101928.56;;;0.21;100.00
45275;BME280;31019;43.780;25.948;2023-12-04T00:45:43;101928.41;;;0.35;100.00
45275;BME280;31019;43.780;25.948;2023-12-04T00:48:13;101927.63;;;0.22;100.00
45275;BME280;31019;43.780;25.948;2023-12-04T00:50:43;101924.28;;;0.20;100.00
45275;BME280;31019;43.780;25.948;2023-12-04T00:53:10;101931.38;;;0.18;100.00
45275;BME280;31019;43.780;25.948;2023-12-04T00:55:38;101933.16;;;0.17;100.00
45275;BME280;31019;43.780;25.948;2023-12-04T00:58:06;101934.56;;;1.64;100.00
45275;BME280;31019;43.780;25.948;2023-12-04T01:00:33;101940.81;;;0.44;100.00
45275;BME280;31019;43.780;25.948;2023-12-04T01:03:00;101934.84;;;0.90;100.00
45275;BME280;31019;43.780;25.948;2023-12-04T01:05:27;101941.84;;;0.79;100.00
45275;BME280;31019;43.780;25.948;2023-12-04T01:07:54;101934.94;;;0.17;100.00
45275;BME280;31019;43.780;25.948;2023-12-04T01:10:23;101938.59;;;0.14;100.00
45275;BME280;31019;43.780;25.948;2023-12-04T01:12:50;101932.97;;;0.93;100.00
45275;BME280;31019;43.780;25.948;2023-12-04T01:15:18;101933.38;;;0.14;100.00
45275;BME280;31019;43.780;25.948;2023-12-04T01:17:45;101931.28;;;0.19;100.00
45275;BME280;31019;43.780;25.948;2023-12-04T01:20:12;101928.13;;;0.27;100.00
45275;BME280;31019;43.780;25.948;2023-12-04T01:22:39;101941.88;;;1.25;100.00
45275;BME280;31019;43.780;25.948;2023-12-04T01:25:08;101945.13;;;0.45;100.00
45275;BME280;31019;43.780;25.948;2023-12-04T01:27:35;101941.16;;;0.40;100.00
45275;BME280;31019;43.780;25.948;2023-12-04T01:30:06;101940.22;;;0.41;100.00
45275;BME280;31019;43.780;25.948;2023-12-04T01:32:35;101934.41;;;0.25;100.00
45275;BME280;31019;43.780;25.948;2023-12-04T01:35:04;101934.41;;;0.25;100.00
45275;BME280;31019;43.780;25.948;2023-12-04T01:37:32;101946.69;;;0.35;100.00
45275;BME280;31019;43.780;25.948;2023-12-04T01:39:59;101949.94;;;0.39;100.00
45275;BME280;31019;43.780;25.948;2023-12-04T01:42:25;101956.81;;;0.53;100.00
45275;BME280;31019;43.780;25.948;2023-12-04T01:44:53;101959.91;;;0.34;100.00
45275;BME280;31019;43.780;25.948;2023-12-04T01:47:20;101963.88;;;0.39;100.00
45275;BME280;31019;43.780;25.948;2023-12-04T01:49:49;101965.59;;;0.52;100.00
45275;BME280;31019;43.780;25.948;2023-12-04T01:52:16;101957.41;;;0.19;100.00
45275;BME280;31019;43.780;25.948;2023-12-04T01:54:44;101964.31;;;0.20;100.00
45275;BME280;31019;43.780;25.948;2023-12-04T01:57:11;101963.44;;;0.33;100.00
45275;BME280;31019;43.780;25.948;2023-12-04T01:59:38;101963.16;;;0.25;100.00
45275;BME280;31019;43.780;25.948;2023-12-04T02:02:05;101966.44;;;1.00;100.00
45275;BME280;31019;43.780;25.948;2023-12-04T02:04:32;101976.00;;;0.28;100.00
45275;BME280;31019;43.780;25.948;2023-12-04T02:07:02;101979.03;;;0.34;100.00
45275;BME280;31019;43.780;25.948;2023-12-04T02:09:29;101976.22;;;0.12;100.00
45275;BME280;31019;43.780;25.948;2023-12-04T02:11:57;101981.66;;;0.21;100.00
45275;BME280;31019;43.780;25.948;2023-12-04T02:14:25;101983.63;;;0.31;100.00
45275;BME280;31019;43.780;25.948;2023-12-04T02:16:54;101990.09;;;0.38;100.00
45275;BME280;31019;43.780;25.948;2023-12-04T02:19:21;101979.09;;;0.45;100.00
45275;BME280;31019;43.780;25.948;2023-12-04T02:21:49;101986.38;;;0.16;100.00
45275;BME280;31019;43.780;25.948;2023-12-04T02:24:17;101996.81;;;0.29;100.00
45275;BME280;31019;43.780;25.948;2023-12-04T02:26:47;102001.84;;;0.19;100.00
45275;BME280;31019;43.780;25.948;2023-12-04T02:29:23;102002.25;;;0.87;100.00
45275;BME280;31019;43.780;25.948;2023-12-04T02:31:51;102002.69;;;0.57;100.00
45275;BME280;31019;43.780;25.948;2023-12-04T02:34:24;102008.97;;;0.54;100.00
45275;BME280;31019;43.780;25.948;2023-12-04T02:36:52;102009.16;;;0.14;100.00
45275;BME280;31019;43.780;25.948;2023-12-04T02:39:21;102008.03;;;0.18;100.00
45275;BME280;31019;43.780;25.948;2023-12-04T02:41:48;102000.81;;;0.09;100.00
45275;BME280;31019;43.780;25.948;2023-12-04T02:44:15;102004.78;;;-0.11;100.00
45275;BME280;31019;43.780;25.948;2023-12-04T02:46:43;101995.09;;;-0.09;100.00
45275;BME280;31019;43.780;25.948;2023-12-04T02:49:09;102011.97;;;0.37;100.00
45275;BME280;31019;43.780;25.948;2023-12-04T02:51:37;102021.91;;;-0.07;100.00
45275;BME280;31019;43.780;25.948;2023-12-04T02:54:06;102011.19;;;-0.15;100.00
45275;BME280;31019;43.780;25.948;2023-12-04T02:56:35;102015.03;;;0.05;100.00
45275;BME280;31019;43.780;25.948;2023-12-04T02:59:02;102021.63;;;-0.02;100.00
45275;BME280;31019;43.780;25.948;2023-12-04T03:01:28;102022.03;;;0.05;100.00
45275;BME280;31019;43.780;25.948;2023-12-04T03:03:55;102027.34;;;-0.10;100.00
45275;BME280;31019;43.780;25.948;2023-12-04T03:06:22;102017.84;;;-0.11;100.00
45275;BME280;31019;43.780;25.948;2023-12-04T03:08:50;102015.47;;;0.85;100.00
45275;BME280;31019;43.780;25.948;2023-12-04T03:11:17;102029.53;;;-0.04;100.00
45275;BME280;31019;43.780;25.948;2023-12-04T03:13:45;102031.94;;;-0.01;100.00
45275;BME280;31019;43.780;25.948;2023-12-04T03:16:16;102034.56;;;-0.01;100.00
45275;BME280;31019;43.780;25.948;2023-12-04T03:18:43;102035.72;;;-0.05;100.00
45275;BME280;31019;43.780;25.948;2023-12-04T03:21:11;102044.38;;;-0.17;100.00
45275;BME280;31019;43.780;25.948;2023-12-04T03:23:38;102045.50;;;-0.34;100.00
45275;BME280;31019;43.780;25.948;2023-12-04T03:26:05;102037.94;;;0.51;100.00
45275;BME280;31019;43.780;25.948;2023-12-04T03:28:32;102046.03;;;-0.16;100.00
45275;BME280;31019;43.780;25.948;2023-12-04T03:31:00;102043.56;;;-0.17;100.00
45275;BME280;31019;43.780;25.948;2023-12-04T03:33:28;102041.88;;;-0.06;100.00
45275;BME280;31019;43.780;25.948;2023-12-04T03:35:55;102042.72;;;-0.05;100.00
45275;BME280;31019;43.780;25.948;2023-12-04T03:38:22;102050.44;;;-0.29;100.00
45275;BME280;31019;43.780;25.948;2023-12-04T03:40:49;102053.03;;;-0.29;100.00
45275;BME280;31019;43.780;25.948;2023-12-04T03:43:16;102049.91;;;-0.21;100.00
45275;BME280;31019;43.780;25.948;2023-12-04T03:45:43;102056.00;;;-0.21;100.00
45275;BME280;31019;43.780;25.948;2023-12-04T03:48:11;102060.25;;;-0.20;100.00
45275;BME280;31019;43.780;25.948;2023-12-04T03:50:38;102055.44;;;-0.01;100.00
45275;BME280;31019;43.780;25.948;2023-12-04T03:53:05;102058.47;;;-0.07;100.00
45275;BME280;31019;43.780;25.948;2023-12-04T03:55:32;102052.84;;;-0.01;100.00
45275;BME280;31019;43.780;25.948;2023-12-04T03:57:59;102059.22;;;-0.17;100.00
45275;BME280;31019;43.780;25.948;2023-12-04T04:00:26;102061.00;;;-0.18;100.00
45275;BME280;31019;43.780;25.948;2023-12-04T04:02:53;102060.47;;;-0.23;100.00
45275;BME280;31019;43.780;25.948;2023-12-04T04:05:21;102060.13;;;-0.18;100.00
45275;BME280;31019;43.780;25.948;2023-12-04T04:07:48;102060.03;;;-0.30;100.00
45275;BME280;31019;43.780;25.948;2023-12-04T04:10:15;102063.63;;;-0.18;100.00
45275;BME280;31019;43.780;25.948;2023-12-04T04:12:45;102059.22;;;-0.30;100.00
45275;BME280;31019;43.780;25.948;2023-12-04T04:15:12;102058.91;;;-0.13;100.00
45275;BME280;31019;43.780;25.948;2023-12-04T04:17:39;102053.53;;;-0.37;100.00
45275;BME280;31019;43.780;25.948;2023-12-04T04:20:07;102061.91;;;-0.32;100.00
45275;BME280;31019;43.780;25.948;2023-12-04T04:22:37;102066.78;;;-0.40;100.00
45275;BME280;31019;43.780;25.948;2023-12-04T04:25:07;102055.31;;;-0.50;100.00
45275;BME280;31019;43.780;25.948;2023-12-04T04:27:34;102064.59;;;-0.46;100.00
45275;BME280;31019;43.780;25.948;2023-12-04T04:30:01;102068.25;;;-0.49;100.00
45275;BME280;31019;43.780;25.948;2023-12-04T04:32:28;102075.88;;;-0.46;100.00
45275;BME280;31019;43.780;25.948;2023-12-04T04:34:55;102085.44;;;-0.59;100.00
45275;BME280;31019;43.780;25.948;2023-12-04T04:37:22;102074.13;;;-0.45;100.00
45275;BME280;31019;43.780;25.948;2023-12-04T04:39:50;102084.63;;;-0.59;100.00
45275;BME280;31019;43.780;25.948;2023-12-04T04:42:17;102096.41;;;-0.66;100.00
45275;BME280;31019;43.780;25.948;2023-12-04T04:44:44;102094.03;;;-0.84;100.00
45275;BME280;31019;43.780;25.948;2023-12-04T04:47:11;102099.72;;;-0.64;100.00
45275;BME280;31019;43.780;25.948;2023-12-04T04:49:38;102096.91;;;-0.61;100.00
45275;BME280;31019;43.780;25.948;2023-12-04T04:52:07;102095.34;;;-0.64;100.00
45275;BME280;31019;43.780;25.948;2023-12-04T04:54:34;102096.78;;;-0.73;100.00
45275;BME280;31019;43.780;25.948;2023-12-04T04:57:02;102099.97;;;-0.82;100.00
45275;BME280;31019;43.780;25.948;2023-12-04T04:59:30;102110.78;;;-0.88;100.00
45275;BME280;31019;43.780;25.948;2023-12-04T05:01:57;102115.34;;;-0.77;100.00
45275;BME280;31019;43.780;25.948;2023-12-04T05:04:25;102117.91;;;-1.04;100.00
45275;BME280;31019;43.780;25.948;2023-12-04T05:06:55;102120.97;;;-1.39;100.00
45275;BME280;31019;43.780;25.948;2023-12-04T05:09:22;102124.41;;;-0.97;100.00
45275;BME280;31019;43.780;25.948;2023-12-04T05:11:49;102119.50;;;-1.02;100.00
45275;BME280;31019;43.780;25.948;2023-12-04T05:14:18;102128.94;;;-1.13;100.00
45275;BME280;31019;43.780;25.948;2023-12-04T05:16:45;102126.56;;;-1.04;100.00
45275;BME280;31019;43.780;25.948;2023-12-04T05:19:12;102129.75;;;-0.99;100.00
45275;BME280;31019;43.780;25.948;2023-12-04T05:21:39;102133.16;;;-0.84;100.00
45275;BME280;31019;43.780;25.948;2023-12-04T05:24:06;102140.25;;;-0.86;100.00
45275;BME280;31019;43.780;25.948;2023-12-04T05:26:34;102138.31;;;-0.97;100.00
45275;BME280;31019;43.780;25.948;2023-12-04T05:29:01;102147.75;;;-1.08;100.00
45275;BME280;31019;43.780;25.948;2023-12-04T05:31:29;102144.84;;;-1.18;100.00
45275;BME280;31019;43.780;25.948;2023-12-04T05:33:56;102144.41;;;-1.39;100.00
45275;BME280;31019;43.780;25.948;2023-12-04T05:36:23;102137.63;;;-1.42;100.00
45275;BME280;31019;43.780;25.948;2023-12-04T05:38:50;102147.38;;;-1.02;100.00
45275;BME280;31019;43.780;25.948;2023-12-04T05:41:19;102146.44;;;-1.16;100.00
45275;BME280;31019;43.780;25.948;2023-12-04T05:43:46;102142.09;;;-1.29;100.00
45275;BME280;31019;43.780;25.948;2023-12-04T05:46:13;102143.75;;;-1.28;100.00
45275;BME280;31019;43.780;25.948;2023-12-04T05:48:42;102140.66;;;-1.64;100.00
45275;BME280;31019;43.780;25.948;2023-12-04T05:51:10;102140.03;;;-1.53;100.00
45275;BME280;31019;43.780;25.948;2023-12-04T05:53:38;102142.38;;;-1.48;100.00
45275;BME280;31019;43.780;25.948;2023-12-04T05:56:06;102162.16;;;-1.46;100.00
45275;BME280;31019;43.780;25.948;2023-12-04T05:58:34;102159.69;;;-1.33;100.00
45275;BME280;31019;43.780;25.948;2023-12-04T06:01:01;102154.91;;;-1.41;100.00
45275;BME280;31019;43.780;25.948;2023-12-04T06:03:29;102170.00;;;-1.46;100.00
45275;BME280;31019;43.780;25.948;2023-12-04T06:05:57;102161.72;;;-1.52;100.00
45275;BME280;31019;43.780;25.948;2023-12-04T06:08:24;102170.47;;;-1.39;100.00
45275;BME280;31019;43.780;25.948;2023-12-04T06:10:51;102173.06;;;-1.53;100.00
45275;BME280;31019;43.780;25.948;2023-12-04T06:13:18;102171.38;;;-1.69;100.00
45275;BME280;31019;43.780;25.948;2023-12-04T06:15:47;102169.25;;;-1.62;100.00
45275;BME280;31019;43.780;25.948;2023-12-04T06:18:14;102174.53;;;0.29;100.00
45275;BME280;31019;43.780;25.948;2023-12-04T06:20:41;102179.75;;;-1.49;100.00
45275;BME280;31019;43.780;25.948;2023-12-04T06:23:10;102181.88;;;-1.70;100.00
45275;BME280;31019;43.780;25.948;2023-12-04T06:25:37;102189.03;;;-1.74;100.00
45275;BME280;31019;43.780;25.948;2023-12-04T06:28:05;102181.88;;;-1.70;100.00
45275;BME280;31019;43.780;25.948;2023-12-04T06:30:32;102186.50;;;1.69;100.00
45275;BME280;31019;43.780;25.948;2023-12-04T06:33:00;102188.78;;;-0.98;100.00
45275;BME280;31019;43.780;25.948;2023-12-04T06:35:27;102184.06;;;-1.20;100.00
45275;BME280;31019;43.780;25.948;2023-12-04T06:37:55;102182.94;;;-1.16;100.00
45275;BME280;31019;43.780;25.948;2023-12-04T06:40:27;102192.91;;;-1.08;100.00
45275;BME280;31019;43.780;25.948;2023-12-04T06:42:54;102188.34;;;-0.90;100.00
45275;BME280;31019;43.780;25.948;2023-12-04T06:45:22;102201.13;;;-0.58;100.00
45275;BME280;31019;43.780;25.948;2023-12-04T06:47:52;102197.91;;;-0.49;100.00
45275;BME280;31019;43.780;25.948;2023-12-04T06:50:20;102207.31;;;-0.32;100.00
45275;BME280;31019;43.780;25.948;2023-12-04T06:52:48;102213.06;;;0.00;100.00
45275;BME280;31019;43.780;25.948;2023-12-04T06:55:15;102214.47;;;0.18;100.00
45275;BME280;31019;43.780;25.948;2023-12-04T06:57:43;102208.00;;;0.50;100.00
45275;BME280;31019;43.780;25.948;2023-12-04T07:00:11;102211.84;;;1.08;100.00
45275;BME280;31019;43.780;25.948;2023-12-04T07:02:40;102216.16;;;1.33;100.00
45275;BME280;31019;43.780;25.948;2023-12-04T07:05:07;102214.91;;;1.63;100.00
45275;BME280;31019;43.780;25.948;2023-12-04T07:07:37;102220.66;;;1.92;100.00
45275;BME280;31019;43.780;25.948;2023-12-04T07:10:07;102219.59;;;2.18;100.00
45275;BME280;31019;43.780;25.948;2023-12-04T07:12:34;102216.34;;;1.79;100.00
45275;BME280;31019;43.780;25.948;2023-12-04T07:15:03;102229.66;;;2.47;100.00
45275;BME280;31019;43.780;25.948;2023-12-04T07:17:30;102214.69;;;3.05;100.00
45275;BME280;31019;43.780;25.948;2023-12-04T07:19:57;102224.84;;;3.21;100.00
45275;BME280;31019;43.780;25.948;2023-12-04T07:22:24;102227.09;;;3.03;100.00
45275;BME280;31019;43.780;25.948;2023-12-04T07:24:51;102227.16;;;2.57;100.00
45275;BME280;31019;43.780;25.948;2023-12-04T07:27:18;102226.94;;;2.13;100.00
45275;BME280;31019;43.780;25.948;2023-12-04T07:29:45;102233.56;;;2.88;100.00
45275;BME280;31019;43.780;25.948;2023-12-04T07:32:17;102229.84;;;2.21;100.00
45275;BME280;31019;43.780;25.948;2023-12-04T07:34:45;102240.44;;;2.78;100.00
45275;BME280;31019;43.780;25.948;2023-12-04T07:37:12;102243.19;;;4.19;100.00
45275;BME280;31019;43.780;25.948;2023-12-04T07:39:39;102240.69;;;4.18;100.00
45275;BME280;31019;43.780;25.948;2023-12-04T07:42:08;102243.31;;;4.59;100.00
45275;BME280;31019;43.780;25.948;2023-12-04T07:44:37;102244.00;;;4.82;100.00
45275;BME280;31019;43.780;25.948;2023-12-04T07:47:04;102245.19;;;3.95;100.00
45275;BME280;31019;43.780;25.948;2023-12-04T07:49:33;102234.00;;;3.27;100.00
45275;BME280;31019;43.780;25.948;2023-12-04T07:52:01;102249.91;;;3.03;100.00
45275;BME280;31019;43.780;25.948;2023-12-04T07:54:29;102249.25;;;2.65;100.00
45275;BME280;31019;43.780;25.948;2023-12-04T07:56:56;102243.75;;;4.65;100.00
45275;BME280;31019;43.780;25.948;2023-12-04T07:59:23;102237.75;;;3.67;100.00
45275;BME280;31019;43.780;25.948;2023-12-04T08:01:50;102247.59;;;3.32;100.00
45275;BME280;31019;43.780;25.948;2023-12-04T08:04:19;102245.72;;;3.00;100.00
45275;BME280;31019;43.780;25.948;2023-12-04T08:06:47;102243.28;;;3.53;100.00
45275;BME280;31019;43.780;25.948;2023-12-04T08:09:15;102242.00;;;2.80;100.00
45275;BME280;31019;43.780;25.948;2023-12-04T08:11:42;102243.94;;;3.12;100.00
45275;BME280;31019;43.780;25.948;2023-12-04T08:14:09;102241.06;;;2.92;100.00
45275;BME280;31019;43.780;25.948;2023-12-04T08:16:37;102240.72;;;2.97;100.00
45275;BME280;31019;43.780;25.948;2023-12-04T08:19:05;102246.59;;;3.66;100.00
45275;BME280;31019;43.780;25.948;2023-12-04T08:21:35;102244.09;;;4.50;100.00
45275;BME280;31019;43.780;25.948;2023-12-04T08:24:03;102236.31;;;5.41;100.00
45275;BME280;31019;43.780;25.948;2023-12-04T08:26:30;102235.19;;;4.93;100.00
45275;BME280;31019;43.780;25.948;2023-12-04T08:28:57;102237.59;;;2.69;100.00
45275;BME280;31019;43.780;25.948;2023-12-04T08:31:24;102236.16;;;6.02;100.00
45275;BME280;31019;43.780;25.948;2023-12-04T08:33:52;102244.81;;;3.67;100.00
45275;BME280;31019;43.780;25.948;2023-12-04T08:36:19;102240.78;;;3.29;100.00
45275;BME280;31019;43.780;25.948;2023-12-04T08:38:46;102236.63;;;5.07;100.00
45275;BME280;31019;43.780;25.948;2023-12-04T08:41:15;102236.03;;;5.94;100.00
45275;BME280;31019;43.780;25.948;2023-12-04T08:43:42;102227.19;;;6.61;100.00
45275;BME280;31019;43.780;25.948;2023-12-04T08:46:12;102240.44;;;6.32;100.00
45275;BME280;31019;43.780;25.948;2023-12-04T08:48:39;102231.19;;;4.99;100.00
45275;BME280;31019;43.780;25.948;2023-12-04T08:51:07;102225.53;;;4.10;100.00
45275;BME280;31019;43.780;25.948;2023-12-04T08:53:34;102221.09;;;6.51;100.00
45275;BME280;31019;43.780;25.948;2023-12-04T08:56:02;102223.75;;;5.14;100.00
45275;BME280;31019;43.780;25.948;2023-12-04T08:58:31;102215.97;;;5.62;100.00
45275;BME280;31019;43.780;25.948;2023-12-04T09:00:57;102207.66;;;6.82;100.00
45275;BME280;31019;43.780;25.948;2023-12-04T09:03:24;102213.31;;;3.88;100.00
45275;BME280;31019;43.780;25.948;2023-12-04T09:05:51;102208.09;;;6.01;100.00
45275;BME280;31019;43.780;25.948;2023-12-04T09:08:22;102201.59;;;7.54;100.00
45275;BME280;31019;43.780;25.948;2023-12-04T09:10:48;102205.13;;;7.45;100.00
45275;BME280;31019;43.780;25.948;2023-12-04T09:13:15;102203.09;;;4.27;100.00
45275;BME280;31019;43.780;25.948;2023-12-04T09:15:44;102207.84;;;3.80;100.00
45275;BME280;31019;43.780;25.948;2023-12-04T09:18:11;102210.81;;;3.86;100.00
45275;BME280;31019;43.780;25.948;2023-12-04T09:20:38;102203.22;;;7.38;100.00
45275;BME280;31019;43.780;25.948;2023-12-04T09:23:06;102203.59;;;5.43;100.00
45275;BME280;31019;43.780;25.948;2023-12-04T09:25:33;102198.38;;;4.72;100.00
45275;BME280;31019;43.780;25.948;2023-12-04T09:28:00;102199.34;;;4.08;100.00
45275;BME280;31019;43.780;25.948;2023-12-04T09:30:28;102196.09;;;6.46;100.00
45275;BME280;31019;43.780;25.948;2023-12-04T09:32:56;102193.59;;;6.91;100.00
45275;BME280;31019;43.780;25.948;2023-12-04T09:35:23;102187.97;;;7.04;100.00
45275;BME280;31019;43.780;25.948;2023-12-04T09:37:50;102188.28;;;6.63;100.00
45275;BME280;31019;43.780;25.948;2023-12-04T09:40:17;102187.00;;;6.01;100.00
45275;BME280;31019;43.780;25.948;2023-12-04T09:42:45;102182.63;;;6.49;100.00
45275;BME280;31019;43.780;25.948;2023-12-04T09:45:12;102179.75;;;5.84;100.00
45275;BME280;31019;43.780;25.948;2023-12-04T09:47:41;102175.00;;;5.29;100.00
45275;BME280;31019;43.780;25.948;2023-12-04T09:50:10;102174.16;;;5.19;100.00
45275;BME280;31019;43.780;25.948;2023-12-04T09:52:38;102170.47;;;3.76;100.00
45275;BME280;31019;43.780;25.948;2023-12-04T09:55:06;102172.53;;;6.72;100.00
45275;BME280;31019;43.780;25.948;2023-12-04T09:57:33;102174.88;;;5.40;100.00
45275;BME280;31019;43.780;25.948;2023-12-04T10:00:02;102174.63;;;5.92;100.00
45275;BME280;31019;43.780;25.948;2023-12-04T10:02:30;102177.31;;;7.23;100.00
45275;BME280;31019;43.780;25.948;2023-12-04T10:04:58;102173.22;;;4.89;100.00
45275;BME280;31019;43.780;25.948;2023-12-04T10:07:27;102174.22;;;6.73;100.00
45275;BME280;31019;43.780;25.948;2023-12-04T10:09:54;102172.38;;;8.18;100.00
45275;BME280;31019;43.780;25.948;2023-12-04T10:12:21;102160.47;;;7.42;100.00
45275;BME280;31019;43.780;25.948;2023-12-04T10:15:03;102166.91;;;6.57;100.00
45275;BME280;31019;43.780;25.948;2023-12-04T10:17:33;102170.19;;;5.63;100.00
45275;BME280;31019;43.780;25.948;2023-12-04T10:20:05;102162.84;;;5.77;100.00
45275;BME280;31019;43.780;25.948;2023-12-04T10:22:39;102168.06;;;5.28;100.00
45275;BME280;31019;43.780;25.948;2023-12-04T10:25:16;102164.41;;;8.36;100.00
45275;BME280;31019;43.780;25.948;2023-12-04T10:27:44;102165.31;;;5.39;100.00
45275;BME280;31019;43.780;25.948;2023-12-04T10:30:22;102153.78;;;6.65;100.00
45275;BME280;31019;43.780;25.948;2023-12-04T10:32:53;102151.09;;;6.84;100.00
45275;BME280;31019;43.780;25.948;2023-12-04T10:35:20;102161.06;;;5.96;100.00
45275;BME280;31019;43.780;25.948;2023-12-04T10:37:53;102156.72;;;6.25;100.00
45275;BME280;31019;43.780;25.948;2023-12-04T10:40:25;102156.34;;;6.47;100.00
45275;BME280;31019;43.780;25.948;2023-12-04T10:43:10;102155.50;;;6.09;100.00
45275;BME280;31019;43.780;25.948;2023-12-04T10:45:37;102160.41;;;7.52;100.00
45275;BME280;31019;43.780;25.948;2023-12-04T10:48:05;102161.00;;;7.00;100.00
45275;BME280;31019;43.780;25.948;2023-12-04T10:50:33;102164.78;;;6.13;100.00
45275;BME280;31019;43.780;25.948;2023-12-04T10:53:03;102159.25;;;5.97;100.00
45275;BME280;31019;43.780;25.948;2023-12-04T10:55:31;102158.06;;;5.22;100.00
45275;BME280;31019;43.780;25.948;2023-12-04T10:57:59;102165.16;;;4.08;100.00
45275;BME280;31019;43.780;25.948;2023-12-04T11:00:28;102166.88;;;3.77;100.00
45275;BME280;31019;43.780;25.948;2023-12-04T11:03:03;102155.72;;;6.26;100.00
45275;BME280;31019;43.780;25.948;2023-12-04T11:05:34;102152.25;;;4.78;100.00
45275;BME280;31019;43.780;25.948;2023-12-04T11:08:11;102163.94;;;5.55;100.00
45275;BME280;31019;43.780;25.948;2023-12-04T11:10:48;102160.03;;;7.01;100.00
45275;BME280;31019;43.780;25.948;2023-12-04T11:13:20;102156.81;;;4.76;100.00
45275;BME280;31019;43.780;25.948;2023-12-04T11:15:51;102152.81;;;6.19;100.00
45275;BME280;31019;43.780;25.948;2023-12-04T11:18:22;102156.09;;;7.87;100.00
45275;BME280;31019;43.780;25.948;2023-12-04T11:20:54;102155.22;;;6.12;100.00
45275;BME280;31019;43.780;25.948;2023-12-04T11:23:25;102162.56;;;8.10;100.00
45275;BME280;31019;43.780;25.948;2023-12-04T11:25:53;102151.88;;;5.81;100.00
45275;BME280;31019;43.780;25.948;2023-12-04T11:28:21;102154.63;;;5.89;100.00
45275;BME280;31019;43.780;25.948;2023-12-04T11:30:49;102151.19;;;9.12;100.00
45275;BME280;31019;43.780;25.948;2023-12-04T11:33:17;102159.56;;;7.33;100.00
45275;BME280;31019;43.780;25.948;2023-12-04T11:35:44;102153.31;;;5.06;100.00
45275;BME280;31019;43.780;25.948;2023-12-04T11:38:13;102146.88;;;5.78;100.00
45275;BME280;31019;43.780;25.948;2023-12-04T11:40:42;102152.78;;;7.67;100.00
45275;BME280;31019;43.780;25.948;2023-12-04T11:43:24;102143.41;;;7.54;100.00
45275;BME280;31019;43.780;25.948;2023-12-04T11:45:51;102144.41;;;7.53;100.00
45275;BME280;31019;43.780;25.948;2023-12-04T11:48:23;102148.34;;;8.11;100.00
45275;BME280;31019;43.780;25.948;2023-12-04T11:50:50;102146.75;;;5.60;100.00
45275;BME280;31019;43.780;25.948;2023-12-04T11:53:18;102145.97;;;7.46;100.00
45275;BME280;31019;43.780;25.948;2023-12-04T11:55:47;102137.22;;;6.35;100.00
45275;BME280;31019;43.780;25.948;2023-12-04T11:58:16;102136.56;;;6.33;100.00
45275;BME280;31019;43.780;25.948;2023-12-04T12:00:43;102139.16;;;8.23;100.00
45275;BME280;31019;43.780;25.948;2023-12-04T12:03:14;102124.81;;;8.94;100.00
45275;BME280;31019;43.780;25.948;2023-12-04T12:05:41;102122.69;;;10.53;100.00
45275;BME280;31019;43.780;25.948;2023-12-04T12:08:09;102129.22;;;9.53;100.00
45275;BME280;31019;43.780;25.948;2023-12-04T12:10:37;102125.75;;;9.85;100.00
45275;BME280;31019;43.780;25.948;2023-12-04T12:13:06;102124.66;;;8.96;100.00
45275;BME280;31019;43.780;25.948;2023-12-04T12:15:33;102125.91;;;7.53;100.00
45275;BME280;31019;43.780;25.948;2023-12-04T12:18:01;102123.38;;;7.88;100.00
45275;BME280;31019;43.780;25.948;2023-12-04T12:20:28;102136.97;;;7.93;100.00
45275;BME280;31019;43.780;25.948;2023-12-04T12:22:55;102121.94;;;6.76;100.00
45275;BME280;31019;43.780;25.948;2023-12-04T12:25:22;102123.75;;;8.19;100.00
45275;BME280;31019;43.780;25.948;2023-12-04T12:27:51;102130.44;;;8.31;100.00
45275;BME280;31019;43.780;25.948;2023-12-04T12:30:22;102117.56;;;9.13;100.00
45275;BME280;31019;43.780;25.948;2023-12-04T12:32:50;102128.94;;;11.54;100.00
45275;BME280;31019;43.780;25.948;2023-12-04T12:35:18;102125.09;;;9.50;100.00
45275;BME280;31019;43.780;25.948;2023-12-04T12:37:49;102132.81;;;7.90;100.00
45275;BME280;31019;43.780;25.948;2023-12-04T12:40:20;102130.28;;;7.45;100.00
45275;BME280;31019;43.780;25.948;2023-12-04T12:42:47;102128.25;;;5.12;100.00